createdAt,value
2023-01-05T00:00:00.919Z,0
2023-01-05T00:01:01.023Z,0
2023-01-05T00:02:01.237Z,0
2023-01-05T00:03:04.061Z,0
2023-01-05T00:04:01.244Z,0
2023-01-05T00:05:00.942Z,0
2023-01-05T00:06:01.001Z,0
2023-01-05T00:07:00.996Z,0
2023-01-05T00:08:03.839Z,0
2023-01-05T00:09:00.981Z,0
2023-01-05T00:10:00.975Z,0
2023-01-05T00:11:00.937Z,0
2023-01-05T00:12:00.983Z,0
2023-01-05T00:13:00.930Z,0
2023-01-05T00:14:04.106Z,0
2023-01-05T00:15:00.923Z,0
2023-01-05T00:16:00.943Z,0
2023-01-05T00:17:01.176Z,0
2023-01-05T00:18:00.944Z,0
2023-01-05T00:19:03.796Z,0
2023-01-05T00:20:00.969Z,0
2023-01-05T00:21:00.977Z,0
2023-01-05T00:22:01.071Z,0
2023-01-05T00:23:01.041Z,0
2023-01-05T00:24:01.009Z,0
2023-01-05T00:25:03.504Z,0
2023-01-05T00:26:00.950Z,0
2023-01-05T00:27:00.975Z,0
2023-01-05T00:28:01.103Z,0
2023-01-05T00:29:01.030Z,0
2023-01-05T00:30:03.996Z,0
2023-01-05T00:31:00.969Z,0
2023-01-05T00:32:01.243Z,0
2023-01-05T00:33:00.983Z,0
2023-01-05T00:34:00.994Z,0
2023-01-05T00:35:00.971Z,0
2023-01-05T00:36:00.962Z,0
2023-01-05T00:37:00.975Z,0
2023-01-05T00:38:01.069Z,0
2023-01-05T00:39:01.143Z,0
2023-01-05T00:40:01.029Z,0
2023-01-05T00:41:04.023Z,0
2023-01-05T00:42:00.997Z,0
2023-01-05T00:43:00.978Z,0
2023-01-05T00:44:01.020Z,0
2023-01-05T00:45:00.995Z,0
2023-01-05T00:46:01.335Z,0
2023-01-05T00:47:00.983Z,0
2023-01-05T00:48:01.030Z,0
2023-01-05T00:49:01.040Z,0
2023-01-05T00:50:01.010Z,0
2023-01-05T00:51:01.007Z,0
2023-01-05T00:52:04.117Z,0
2023-01-05T00:53:01.021Z,0
2023-01-05T00:54:01.094Z,0
2023-01-05T00:55:01.007Z,0
2023-01-05T00:56:01.007Z,0
2023-01-05T00:57:01.105Z,0
2023-01-05T00:58:01.113Z,0
2023-01-05T00:59:01.036Z,0
2023-01-05T01:00:01.026Z,0
2023-01-05T01:01:01.248Z,0
2023-01-05T01:02:01.559Z,0
2023-01-05T01:03:04.268Z,0
2023-01-05T01:04:01.024Z,0
2023-01-05T01:05:01.032Z,0
2023-01-05T01:06:01.014Z,0
2023-01-05T01:07:01.055Z,0
2023-01-05T01:08:01.389Z,0
2023-01-05T01:09:01.053Z,0
2023-01-05T01:10:01.126Z,0
2023-01-05T01:11:01.047Z,0
2023-01-05T01:12:01.067Z,0
2023-01-05T01:13:01.216Z,0
2023-01-05T01:14:04.095Z,0
2023-01-05T01:15:01.038Z,0
2023-01-05T01:16:01.047Z,0
2023-01-05T01:17:01.409Z,0
2023-01-05T01:18:01.032Z,0
2023-01-05T01:19:09.520Z,0
2023-01-05T01:20:01.065Z,0
2023-01-05T01:21:01.057Z,0
2023-01-05T01:22:01.043Z,0
2023-01-05T01:23:01.086Z,0
2023-01-05T01:24:02.104Z,0
2023-01-05T01:25:01.079Z,0
2023-01-05T01:26:01.108Z,0
2023-01-05T01:27:01.084Z,0
2023-01-05T01:28:01.041Z,0
2023-01-05T01:29:01.119Z,0
2023-01-05T01:30:01.086Z,0
2023-01-05T01:31:01.287Z,0
2023-01-05T01:32:01.105Z,0
2023-01-05T01:33:01.064Z,0
2023-01-05T01:34:01.141Z,0
2023-01-05T01:35:01.093Z,0
2023-01-05T01:36:01.068Z,0
2023-01-05T01:37:04.086Z,0
2023-01-05T01:38:01.085Z,0
2023-01-05T01:39:01.088Z,0
2023-01-05T01:40:01.083Z,0
2023-01-05T01:41:01.265Z,0
2023-01-05T01:42:01.157Z,0
2023-01-05T01:43:01.075Z,0
2023-01-05T01:44:01.079Z,0
2023-01-05T01:45:01.105Z,0
2023-01-05T01:46:04.549Z,0
2023-01-05T01:47:01.080Z,0
2023-01-05T01:48:01.101Z,0
2023-01-05T01:49:01.153Z,0
2023-01-05T01:50:01.147Z,0
2023-01-05T01:51:10.006Z,0
2023-01-05T01:52:01.095Z,0
2023-01-05T01:53:01.085Z,0
2023-01-05T01:54:01.089Z,0
2023-01-05T01:55:01.100Z,0
2023-01-05T01:56:01.108Z,0
2023-01-05T01:57:03.903Z,0
2023-01-05T01:58:01.292Z,0
2023-01-05T01:59:01.107Z,0
2023-01-05T02:00:01.130Z,0
2023-01-05T02:01:01.461Z,0
2023-01-05T02:02:04.610Z,0
2023-01-05T02:03:01.212Z,0
2023-01-05T02:04:01.161Z,0
2023-01-05T02:05:01.249Z,0
2023-01-05T02:06:01.144Z,0
2023-01-05T02:07:01.319Z,0
2023-01-05T02:08:03.936Z,0
2023-01-05T02:09:01.122Z,0
2023-01-05T02:10:01.126Z,0
2023-01-05T02:11:01.285Z,0
2023-01-05T02:12:01.139Z,0
2023-01-05T02:13:04.431Z,0
2023-01-05T02:14:01.152Z,0
2023-01-05T02:15:01.142Z,0
2023-01-05T02:16:01.186Z,0
2023-01-05T02:17:01.438Z,0
2023-01-05T02:18:01.175Z,0
2023-01-05T02:19:04.208Z,0
2023-01-05T02:20:01.162Z,0
2023-01-05T02:21:01.184Z,0
2023-01-05T02:22:01.175Z,0
2023-01-05T02:23:01.157Z,0
2023-01-05T02:24:04.005Z,0
2023-01-05T02:25:01.191Z,0
2023-01-05T02:26:01.194Z,0
2023-01-05T02:27:01.137Z,0
2023-01-05T02:28:01.172Z,0
2023-01-05T02:29:01.251Z,0
2023-01-05T02:30:04.189Z,0
2023-01-05T02:31:01.487Z,0
2023-01-05T02:32:01.169Z,0
2023-01-05T02:33:01.227Z,0
2023-01-05T02:34:01.174Z,0
2023-01-05T02:35:04.170Z,0
2023-01-05T02:36:01.168Z,0
2023-01-05T02:37:01.173Z,0
2023-01-05T02:38:01.175Z,0
2023-01-05T02:39:01.153Z,0
2023-01-05T02:40:01.212Z,0
2023-01-05T02:41:03.930Z,0
2023-01-05T02:42:01.319Z,0
2023-01-05T02:43:01.226Z,0
2023-01-05T02:44:01.211Z,0
2023-01-05T02:45:01.296Z,0
2023-01-05T02:46:04.379Z,0
2023-01-05T02:47:01.226Z,0
2023-01-05T02:48:01.207Z,0
2023-01-05T02:49:01.267Z,0
2023-01-05T02:50:01.244Z,0
2023-01-05T02:51:01.240Z,0
2023-01-05T02:52:04.230Z,0
2023-01-05T02:53:01.225Z,0
2023-01-05T02:54:01.278Z,0
2023-01-05T02:55:01.228Z,0
2023-01-05T02:56:01.191Z,0
2023-01-05T02:57:04.347Z,0
2023-01-05T02:58:01.197Z,0
2023-01-05T02:59:01.223Z,0
2023-01-05T03:00:01.237Z,0
2023-01-05T03:01:01.681Z,0
2023-01-05T03:02:02.011Z,0
2023-01-05T03:03:05.222Z,0
2023-01-05T03:04:01.219Z,0
2023-01-05T03:05:01.266Z,0
2023-01-05T03:06:01.263Z,0
2023-01-05T03:07:01.534Z,0
2023-01-05T03:08:04.076Z,0
2023-01-05T03:09:01.272Z,0
2023-01-05T03:10:01.235Z,0
2023-01-05T03:11:01.226Z,0
2023-01-05T03:12:01.228Z,0
2023-01-05T03:13:01.215Z,0
2023-01-05T03:14:01.245Z,0
2023-01-05T03:15:01.262Z,0
2023-01-05T03:16:01.464Z,0
2023-01-05T03:17:01.293Z,0
2023-01-05T03:18:01.254Z,0
2023-01-05T03:19:04.050Z,0
2023-01-05T03:20:01.288Z,0
2023-01-05T03:21:01.278Z,0
2023-01-05T03:22:01.248Z,0
2023-01-05T03:23:01.278Z,0
2023-01-05T03:24:01.270Z,0
2023-01-05T03:25:01.266Z,0
2023-01-05T03:26:01.263Z,0
2023-01-05T03:27:01.266Z,0
2023-01-05T03:28:01.289Z,0
2023-01-05T03:29:01.321Z,0
2023-01-05T03:30:04.163Z,0
2023-01-05T03:31:01.510Z,0
2023-01-05T03:32:01.255Z,0
2023-01-05T03:33:01.325Z,0
2023-01-05T03:34:01.270Z,0
2023-01-05T03:35:02.138Z,0
2023-01-05T03:36:01.257Z,0
2023-01-05T03:37:01.293Z,0
2023-01-05T03:38:01.274Z,0
2023-01-05T03:39:01.313Z,0
2023-01-05T03:40:01.290Z,0
2023-01-05T03:41:04.142Z,0
2023-01-05T03:42:01.300Z,0
2023-01-05T03:43:01.275Z,0
2023-01-05T03:44:01.306Z,0
2023-01-05T03:45:01.320Z,0
2023-01-05T03:46:04.605Z,0
2023-01-05T03:47:01.287Z,0
2023-01-05T03:48:01.295Z,0
2023-01-05T03:49:01.375Z,0
2023-01-05T03:50:01.330Z,0
2023-01-05T03:51:01.329Z,0
2023-01-05T03:52:01.319Z,0
2023-01-05T03:53:01.385Z,0
2023-01-05T03:54:01.291Z,0
2023-01-05T03:55:01.335Z,0
2023-01-05T03:56:01.303Z,0
2023-01-05T03:57:01.330Z,0
2023-01-05T03:58:01.325Z,0
2023-01-05T03:59:01.290Z,0
2023-01-05T04:00:01.356Z,0
2023-01-05T04:01:01.305Z,0
2023-01-05T04:02:01.976Z,0
2023-01-05T04:03:01.927Z,0
2023-01-05T04:04:01.643Z,0
2023-01-05T04:05:01.493Z,0
2023-01-05T04:06:01.338Z,0
2023-01-05T04:07:01.315Z,0
2023-01-05T04:08:01.325Z,0
2023-01-05T04:09:01.402Z,0
2023-01-05T04:10:01.414Z,0
2023-01-05T04:11:01.337Z,0
2023-01-05T04:12:01.495Z,0
2023-01-05T04:13:04.547Z,0
2023-01-05T04:14:01.327Z,0
2023-01-05T04:15:01.327Z,0
2023-01-05T04:16:01.508Z,0
2023-01-05T04:17:01.331Z,0
2023-01-05T04:18:01.341Z,0
2023-01-05T04:19:01.390Z,0
2023-01-05T04:20:01.403Z,0
2023-01-05T04:21:01.423Z,0
2023-01-05T04:22:01.379Z,0
2023-01-05T04:23:01.343Z,0
2023-01-05T04:24:04.173Z,0
2023-01-05T04:25:01.388Z,0
2023-01-05T04:26:01.374Z,0
2023-01-05T04:27:01.384Z,0
2023-01-05T04:28:01.350Z,0
2023-01-05T04:29:04.607Z,0
2023-01-05T04:30:01.402Z,0
2023-01-05T04:31:01.653Z,0
2023-01-05T04:32:01.360Z,0
2023-01-05T04:33:01.374Z,0
2023-01-05T04:34:01.370Z,0
2023-01-05T04:35:10.813Z,0
2023-01-05T04:36:01.382Z,0
2023-01-05T04:37:01.460Z,0
2023-01-05T04:38:01.521Z,0
2023-01-05T04:39:01.376Z,0
2023-01-05T04:40:04.523Z,0
2023-01-05T04:41:01.402Z,0
2023-01-05T04:42:01.383Z,0
2023-01-05T04:43:01.505Z,0
2023-01-05T04:44:01.420Z,0
2023-01-05T04:45:01.409Z,0
2023-01-05T04:46:05.143Z,0
2023-01-05T04:47:01.553Z,0
2023-01-05T04:48:01.538Z,0
2023-01-05T04:49:01.389Z,0
2023-01-05T04:50:01.422Z,0
2023-01-05T04:51:04.432Z,0
2023-01-05T04:52:01.410Z,0
2023-01-05T04:53:01.452Z,0
2023-01-05T04:54:01.403Z,0
2023-01-05T04:55:01.612Z,0
2023-01-05T04:56:01.437Z,0
2023-01-05T04:57:04.259Z,0
2023-01-05T04:58:02.013Z,0
2023-01-05T04:59:01.422Z,0
2023-01-05T05:00:01.441Z,0
2023-01-05T05:01:01.486Z,0
2023-01-05T05:02:05.323Z,0
2023-01-05T05:03:01.966Z,0
2023-01-05T05:04:01.680Z,0
2023-01-05T05:05:01.434Z,0
2023-01-05T05:06:01.441Z,0
2023-01-05T05:07:01.427Z,0
2023-01-05T05:08:04.442Z,0
2023-01-05T05:09:01.508Z,0
2023-01-05T05:10:01.419Z,0
2023-01-05T05:11:01.470Z,0
2023-01-05T05:12:01.471Z,0
2023-01-05T05:13:04.252Z,0
2023-01-05T05:14:01.471Z,0
2023-01-05T05:15:01.487Z,0
2023-01-05T05:16:01.663Z,0
2023-01-05T05:17:01.503Z,0
2023-01-05T05:18:09.350Z,0
2023-01-05T05:19:04.448Z,0
2023-01-05T05:20:01.501Z,0
2023-01-05T05:21:01.477Z,0
2023-01-05T05:22:01.425Z,0
2023-01-05T05:23:01.653Z,0
2023-01-05T05:24:04.284Z,0
2023-01-05T05:25:01.666Z,0
2023-01-05T05:26:01.483Z,0
2023-01-05T05:27:01.466Z,0
2023-01-05T05:28:01.472Z,0
2023-01-05T05:29:01.463Z,0
2023-01-05T05:30:05.407Z,0
2023-01-05T05:31:01.778Z,0
2023-01-05T05:32:01.474Z,0
2023-01-05T05:33:01.482Z,0
2023-01-05T05:34:01.474Z,0
2023-01-05T05:35:04.247Z,0
2023-01-05T05:36:01.521Z,0
2023-01-05T05:37:01.491Z,0
2023-01-05T05:38:03.788Z,0
2023-01-05T05:39:01.495Z,0
2023-01-05T05:40:01.662Z,0
2023-01-05T05:41:01.585Z,0
2023-01-05T05:42:01.473Z,0
2023-01-05T05:43:01.480Z,0
2023-01-05T05:44:01.507Z,0
2023-01-05T05:45:01.492Z,0
2023-01-05T05:46:04.296Z,0
2023-01-05T05:47:01.713Z,0
2023-01-05T05:48:01.521Z,0
2023-01-05T05:49:01.517Z,0
2023-01-05T05:50:01.492Z,0
2023-01-05T05:51:01.583Z,0
2023-01-05T05:52:01.500Z,0
2023-01-05T05:53:01.506Z,0
2023-01-05T05:54:01.535Z,0
2023-01-05T05:55:01.532Z,0
2023-01-05T05:56:01.614Z,0
2023-01-05T05:57:04.348Z,0
2023-01-05T05:58:01.519Z,0
2023-01-05T05:59:07.931Z,0
2023-01-05T06:00:01.613Z,0
2023-01-05T06:01:01.656Z,0
2023-01-05T06:02:02.107Z,0
2023-01-05T06:03:02.273Z,0
2023-01-05T06:04:01.661Z,0
2023-01-05T06:05:01.584Z,0
2023-01-05T06:06:01.575Z,0
2023-01-05T06:07:01.556Z,0
2023-01-05T06:08:04.434Z,0
2023-01-05T06:09:01.575Z,0
2023-01-05T06:10:01.945Z,0
2023-01-05T06:11:01.781Z,0
2023-01-05T06:12:01.844Z,0
2023-01-05T06:13:04.380Z,0
2023-01-05T06:14:01.545Z,0
2023-01-05T06:15:01.525Z,0
2023-01-05T06:16:01.899Z,0
2023-01-05T06:17:01.526Z,0
2023-01-05T06:18:01.549Z,0
2023-01-05T06:19:01.581Z,0
2023-01-05T06:20:01.376Z,0
2023-01-05T06:21:08.197Z,0
2023-01-05T06:22:01.583Z,0
2023-01-05T06:23:01.577Z,0
2023-01-05T06:24:01.551Z,0
2023-01-05T06:25:01.540Z,0
2023-01-05T06:26:01.590Z,0
2023-01-05T06:27:01.556Z,0
2023-01-05T06:28:01.444Z,0
2023-01-05T06:29:01.588Z,0
2023-01-05T06:30:01.577Z,0
2023-01-05T06:31:01.677Z,0
2023-01-05T06:32:01.823Z,0
2023-01-05T06:33:01.548Z,0
2023-01-05T06:34:01.570Z,0
2023-01-05T06:35:01.567Z,0
2023-01-05T06:36:01.436Z,0
2023-01-05T06:37:07.277Z,0
2023-01-05T06:38:01.395Z,0
2023-01-05T06:39:01.584Z,0
2023-01-05T06:40:04.386Z,0
2023-01-05T06:41:01.666Z,0
2023-01-05T06:42:01.584Z,0
2023-01-05T06:43:01.577Z,0
2023-01-05T06:44:01.693Z,0
2023-01-05T06:45:01.618Z,0
2023-01-05T06:46:02.022Z,0
2023-01-05T06:47:01.404Z,0
2023-01-05T06:48:01.651Z,0
2023-01-05T06:49:01.583Z,0
2023-01-05T06:50:01.628Z,0
2023-01-05T06:51:04.611Z,0
2023-01-05T06:52:01.609Z,0
2023-01-05T06:53:01.606Z,0
2023-01-05T06:54:01.594Z,0
2023-01-05T06:55:01.592Z,0
2023-01-05T06:56:03.243Z,0
2023-01-05T06:57:01.604Z,0
2023-01-05T06:58:07.513Z,4
2023-01-05T06:59:01.432Z,4
2023-01-05T07:00:01.622Z,4
2023-01-05T07:01:01.630Z,4
2023-01-05T07:02:04.914Z,0
2023-01-05T07:03:01.108Z,0
2023-01-05T07:04:01.929Z,0
2023-01-05T07:05:01.598Z,0
2023-01-05T07:06:01.662Z,0
2023-01-05T07:07:04.487Z,0
2023-01-05T07:08:01.325Z,0
2023-01-05T07:09:01.464Z,4
2023-01-05T07:10:01.667Z,4
2023-01-05T07:11:01.491Z,4
2023-01-05T07:12:01.610Z,4
2023-01-05T07:13:04.887Z,0
2023-01-05T07:14:01.497Z,4
2023-01-05T07:15:04.762Z,4
2023-01-05T07:16:01.857Z,4
2023-01-05T07:17:01.702Z,4
2023-01-05T07:18:04.442Z,4
2023-01-05T07:19:01.641Z,4
2023-01-05T07:20:01.489Z,8
2023-01-05T07:21:01.695Z,4
2023-01-05T07:22:03.978Z,4
2023-01-05T07:23:01.692Z,8
2023-01-05T07:24:04.402Z,4
2023-01-05T07:25:01.666Z,8
2023-01-05T07:26:01.739Z,8
2023-01-05T07:27:09.743Z,8
2023-01-05T07:28:01.658Z,8
2023-01-05T07:29:04.739Z,8
2023-01-05T07:30:01.674Z,8
2023-01-05T07:31:01.852Z,8
2023-01-05T07:32:01.876Z,12
2023-01-05T07:33:01.661Z,8
2023-01-05T07:34:01.526Z,8
2023-01-05T07:35:05.977Z,12
2023-01-05T07:36:01.706Z,12
2023-01-05T07:37:01.653Z,12
2023-01-05T07:38:01.670Z,12
2023-01-05T07:39:06.172Z,12
2023-01-05T07:40:04.689Z,16
2023-01-05T07:41:01.693Z,20
2023-01-05T07:42:01.669Z,20
2023-01-05T07:43:01.673Z,24
2023-01-05T07:44:01.649Z,24
2023-01-05T07:45:01.679Z,20
2023-01-05T07:46:04.919Z,24
2023-01-05T07:47:01.701Z,24
2023-01-05T07:48:01.707Z,28
2023-01-05T07:49:01.687Z,28
2023-01-05T07:50:01.746Z,32
2023-01-05T07:51:04.971Z,32
2023-01-05T07:52:01.690Z,32
2023-01-05T07:53:01.681Z,32
2023-01-05T07:54:01.706Z,36
2023-01-05T07:55:01.696Z,36
2023-01-05T07:56:01.759Z,40
2023-01-05T07:57:04.767Z,36
2023-01-05T07:58:01.701Z,40
2023-01-05T07:59:01.738Z,40
2023-01-05T08:00:01.731Z,40
2023-01-05T08:01:01.973Z,40
2023-01-05T08:02:05.799Z,40
2023-01-05T08:03:01.882Z,44
2023-01-05T08:04:01.928Z,44
2023-01-05T08:05:01.745Z,44
2023-01-05T08:06:01.765Z,44
2023-01-05T08:07:01.727Z,40
2023-01-05T08:08:01.721Z,40
2023-01-05T08:09:01.723Z,40
2023-01-05T08:10:01.735Z,48
2023-01-05T08:11:01.750Z,52
2023-01-05T08:12:01.744Z,60
2023-01-05T08:13:08.905Z,72
2023-01-05T08:14:01.752Z,76
2023-01-05T08:15:01.750Z,76
2023-01-05T08:16:01.799Z,72
2023-01-05T08:17:02.138Z,64
2023-01-05T08:18:01.814Z,64
2023-01-05T08:19:03.445Z,60
2023-01-05T08:20:01.764Z,60
2023-01-05T08:21:01.808Z,60
2023-01-05T08:22:01.780Z,56
2023-01-05T08:23:02.240Z,56
2023-01-05T08:24:04.868Z,48
2023-01-05T08:25:01.767Z,44
2023-01-05T08:26:01.728Z,44
2023-01-05T08:27:02.027Z,44
2023-01-05T08:28:01.817Z,44
2023-01-05T08:29:01.826Z,44
2023-01-05T08:30:01.785Z,44
2023-01-05T08:31:01.864Z,44
2023-01-05T08:32:02.020Z,44
2023-01-05T08:33:01.575Z,48
2023-01-05T08:34:01.908Z,48
2023-01-05T08:35:05.825Z,52
2023-01-05T08:36:01.778Z,56
2023-01-05T08:37:01.848Z,56
2023-01-05T08:38:01.777Z,56
2023-01-05T08:39:01.917Z,56
2023-01-05T08:40:04.981Z,56
2023-01-05T08:41:01.821Z,52
2023-01-05T08:42:08.930Z,52
2023-01-05T08:43:01.857Z,48
2023-01-05T08:44:01.611Z,52
2023-01-05T08:45:01.779Z,56
2023-01-05T08:46:02.056Z,60
2023-01-05T08:47:01.806Z,64
2023-01-05T08:48:01.804Z,60
2023-01-05T08:49:01.774Z,60
2023-01-05T08:50:01.852Z,68
2023-01-05T08:51:01.809Z,72
2023-01-05T08:52:01.798Z,68
2023-01-05T08:53:01.887Z,72
2023-01-05T08:54:01.843Z,72
2023-01-05T08:55:01.807Z,76
2023-01-05T08:56:01.858Z,76
2023-01-05T08:57:01.795Z,76
2023-01-05T08:58:01.837Z,80
2023-01-05T08:59:01.818Z,76
2023-01-05T09:00:01.777Z,72
2023-01-05T09:01:02.386Z,68
2023-01-05T09:02:02.651Z,72
2023-01-05T09:03:02.420Z,68
2023-01-05T09:04:01.830Z,72
2023-01-05T09:05:01.821Z,72
2023-01-05T09:06:01.877Z,76
2023-01-05T09:07:04.958Z,84
2023-01-05T09:08:01.886Z,92
2023-01-05T09:09:02.052Z,100
2023-01-05T09:10:01.905Z,104
2023-01-05T09:11:01.844Z,104
2023-01-05T09:12:01.858Z,108
2023-01-05T09:13:01.838Z,112
2023-01-05T09:14:01.853Z,116
2023-01-05T09:15:01.808Z,120
2023-01-05T09:16:01.869Z,120
2023-01-05T09:17:14.583Z,116
2023-01-05T09:18:05.183Z,120
2023-01-05T09:19:01.819Z,124
2023-01-05T09:20:01.844Z,136
2023-01-05T09:21:01.888Z,144
2023-01-05T09:22:01.961Z,144
2023-01-05T09:23:04.703Z,156
2023-01-05T09:24:01.884Z,160
2023-01-05T09:25:01.866Z,184
2023-01-05T09:26:01.918Z,204
2023-01-05T09:27:01.850Z,212
2023-01-05T09:28:01.891Z,208
2023-01-05T09:29:04.634Z,228
2023-01-05T09:30:01.858Z,280
2023-01-05T09:31:02.094Z,336
2023-01-05T09:32:01.864Z,356
2023-01-05T09:33:01.860Z,364
2023-01-05T09:34:04.662Z,392
2023-01-05T09:35:01.876Z,420
2023-01-05T09:36:01.915Z,404
2023-01-05T09:37:01.873Z,372
2023-01-05T09:38:02.127Z,332
2023-01-05T09:39:01.874Z,296
2023-01-05T09:40:04.899Z,272
2023-01-05T09:41:01.915Z,252
2023-01-05T09:42:01.917Z,236
2023-01-05T09:43:01.875Z,220
2023-01-05T09:44:01.935Z,200
2023-01-05T09:45:06.408Z,188
2023-01-05T09:46:02.525Z,176
2023-01-05T09:47:01.933Z,164
2023-01-05T09:48:01.737Z,156
2023-01-05T09:49:01.888Z,152
2023-01-05T09:50:01.879Z,152
2023-01-05T09:51:04.807Z,152
2023-01-05T09:52:01.866Z,156
2023-01-05T09:53:01.909Z,160
2023-01-05T09:54:02.127Z,160
2023-01-05T09:55:01.891Z,160
2023-01-05T09:56:04.876Z,172
2023-01-05T09:57:18.086Z,176
2023-01-05T09:58:01.888Z,176
2023-01-05T09:59:01.922Z,180
2023-01-05T10:00:01.998Z,188
2023-01-05T10:01:01.953Z,192
2023-01-05T10:02:04.969Z,200
2023-01-05T10:03:02.173Z,204
2023-01-05T10:04:11.183Z,216
2023-01-05T10:05:02.571Z,224
2023-01-05T10:06:02.091Z,240
2023-01-05T10:07:04.829Z,264
2023-01-05T10:08:01.908Z,288
2023-01-05T10:09:01.908Z,324
2023-01-05T10:10:02.178Z,352
2023-01-05T10:11:01.911Z,376
2023-01-05T10:12:02.070Z,340
2023-01-05T10:13:04.671Z,304
2023-01-05T10:14:01.919Z,284
2023-01-05T10:15:01.916Z,276
2023-01-05T10:16:02.360Z,268
2023-01-05T10:17:47.427Z,252
2023-01-05T10:18:04.720Z,252
2023-01-05T10:19:02.137Z,252
2023-01-05T10:20:01.941Z,268
2023-01-05T10:21:01.995Z,264
2023-01-05T10:22:01.980Z,240
2023-01-05T10:23:01.924Z,232
2023-01-05T10:24:01.940Z,244
2023-01-05T10:25:02.011Z,280
2023-01-05T10:26:03.442Z,340
2023-01-05T10:27:32.099Z,360
2023-01-05T10:28:03.987Z,352
2023-01-05T10:29:04.956Z,352
2023-01-05T10:30:01.790Z,376
2023-01-05T10:31:02.210Z,412
2023-01-05T10:32:02.107Z,460
2023-01-05T10:33:52.389Z,444
2023-01-05T10:34:20.559Z,452
2023-01-05T10:36:01.726Z,380
2023-01-05T10:37:09.979Z,344
2023-01-05T10:37:19.683Z,340
2023-01-05T10:38:19.775Z,324
2023-01-05T10:39:19.770Z,324
2023-01-05T10:40:19.654Z,336
2023-01-05T10:41:22.686Z,360
2023-01-05T10:42:19.685Z,380
2023-01-05T10:43:19.762Z,368
2023-01-05T10:44:19.666Z,340
2023-01-05T10:45:19.685Z,332
2023-01-05T10:46:54.425Z,316
2023-01-05T10:47:20.006Z,332
2023-01-05T10:48:19.766Z,348
2023-01-05T10:49:19.649Z,344
2023-01-05T10:50:19.782Z,328
2023-01-05T10:51:19.675Z,312
2023-01-05T10:52:22.487Z,292
2023-01-05T10:53:19.700Z,268
2023-01-05T10:54:19.645Z,268
2023-01-05T10:55:19.656Z,284
2023-01-05T10:56:19.659Z,292
2023-01-05T10:57:22.885Z,300
2023-01-05T10:58:19.627Z,288
2023-01-05T10:59:20.188Z,272
2023-01-05T11:00:19.828Z,244
2023-01-05T11:01:20.254Z,220
2023-01-05T11:02:20.196Z,224
2023-01-05T11:03:39.896Z,232
2023-01-05T11:04:42.895Z,240
2023-01-05T11:05:41.055Z,216
2023-01-05T11:06:40.702Z,192
2023-01-05T11:07:40.678Z,188
2023-01-05T11:08:40.652Z,204
2023-01-05T11:09:40.693Z,220
2023-01-05T11:10:43.662Z,220
2023-01-05T11:11:40.852Z,188
2023-01-05T11:12:40.975Z,168
2023-01-05T11:13:40.723Z,168
2023-01-05T11:14:40.793Z,168
2023-01-05T11:15:40.935Z,164
2023-01-05T11:16:40.679Z,148
2023-01-05T11:17:40.712Z,140
2023-01-05T11:18:40.809Z,148
2023-01-05T11:19:40.790Z,148
2023-01-05T11:20:40.711Z,148
2023-01-05T11:21:43.649Z,148
2023-01-05T11:22:40.765Z,148
2023-01-05T11:23:40.737Z,136
2023-01-05T11:24:40.698Z,116
2023-01-05T11:25:40.704Z,96
2023-01-05T11:26:43.817Z,100
2023-01-05T11:27:40.708Z,108
2023-01-05T11:28:40.987Z,108
2023-01-05T11:29:40.710Z,116
2023-01-05T11:30:41.010Z,116
2023-01-05T11:31:40.940Z,116
2023-01-05T11:32:43.533Z,124
2023-01-05T11:33:40.691Z,120
2023-01-05T11:34:40.896Z,120
2023-01-05T11:35:40.732Z,124
2023-01-05T11:36:40.726Z,140
2023-01-05T11:37:41.464Z,148
2023-01-05T11:38:40.733Z,136
2023-01-05T11:39:40.735Z,144
2023-01-05T11:40:40.727Z,168
2023-01-05T11:41:40.751Z,180
2023-01-05T11:42:40.842Z,180
2023-01-05T11:43:43.759Z,200
2023-01-05T11:44:40.877Z,212
2023-01-05T11:45:40.781Z,192
2023-01-05T11:46:41.182Z,176
2023-01-05T11:47:49.409Z,164
2023-01-05T11:48:43.789Z,152
2023-01-05T11:49:40.743Z,156
2023-01-05T11:50:40.842Z,164
2023-01-05T11:51:40.765Z,156
2023-01-05T11:52:40.721Z,164
2023-01-05T11:53:40.781Z,176
2023-01-05T11:54:40.762Z,196
2023-01-05T11:55:40.955Z,232
2023-01-05T11:56:40.767Z,236
2023-01-05T11:57:40.751Z,228
2023-01-05T11:58:40.764Z,292
2023-01-05T11:59:43.763Z,276
2023-01-05T12:00:41.228Z,316
2023-01-05T12:01:41.082Z,340
2023-01-05T12:02:41.321Z,316
2023-01-05T12:03:41.063Z,340
2023-01-05T12:04:40.803Z,424
2023-01-05T12:05:40.787Z,412
2023-01-05T12:06:40.908Z,392
2023-01-05T12:07:40.833Z,368
2023-01-05T12:08:40.795Z,396
2023-01-05T12:09:42.788Z,384
2023-01-05T12:10:40.782Z,312
2023-01-05T12:11:40.771Z,340
2023-01-05T12:12:40.773Z,348
2023-01-05T12:13:40.843Z,324
2023-01-05T12:14:40.791Z,248
2023-01-05T12:15:41.202Z,208
2023-01-05T12:16:41.070Z,212
2023-01-05T12:17:40.844Z,204
2023-01-05T12:18:40.927Z,248
2023-01-05T12:19:40.778Z,240
2023-01-05T12:20:40.801Z,240
2023-01-05T12:21:40.822Z,236
2023-01-05T12:22:40.977Z,232
2023-01-05T12:23:40.864Z,180
2023-01-05T12:24:40.863Z,204
2023-01-05T12:25:40.775Z,236
2023-01-05T12:26:43.875Z,248
2023-01-05T12:27:40.802Z,260
2023-01-05T12:29:50.792Z,272
2023-01-05T12:34:00.542Z,268
2023-01-05T12:34:20.644Z,208
2023-01-05T12:35:18.544Z,204
2023-01-05T12:36:15.663Z,220
2023-01-05T12:37:15.751Z,208
2023-01-05T12:38:15.787Z,184
2023-01-05T12:39:15.727Z,164
2023-01-05T12:40:15.825Z,156
2023-01-05T12:41:18.688Z,160
2023-01-05T12:42:15.642Z,168
2023-01-05T12:43:15.667Z,196
2023-01-05T12:44:15.669Z,204
2023-01-05T12:45:15.639Z,216
2023-01-05T12:46:18.571Z,216
2023-01-05T12:47:15.942Z,192
2023-01-05T12:48:15.785Z,164
2023-01-05T12:49:15.711Z,144
2023-01-05T12:50:15.833Z,144
2023-01-05T12:51:15.714Z,148
2023-01-05T12:52:15.933Z,160
2023-01-05T12:53:15.717Z,176
2023-01-05T12:54:15.827Z,192
2023-01-05T12:55:15.658Z,188
2023-01-05T12:56:15.684Z,180
2023-01-05T12:57:18.576Z,160
2023-01-05T12:58:15.707Z,140
2023-01-05T12:59:15.700Z,124
2023-01-05T13:00:15.766Z,112
2023-01-05T13:01:16.198Z,100
2023-01-05T13:02:16.295Z,92
2023-01-05T13:03:15.856Z,84
2023-01-05T13:04:15.836Z,92
2023-01-05T13:05:15.706Z,104
2023-01-05T13:06:15.828Z,136
2023-01-05T13:07:15.703Z,176
2023-01-05T13:08:15.718Z,188
2023-01-05T13:09:15.769Z,184
2023-01-05T13:10:15.934Z,196
2023-01-05T13:11:15.808Z,204
2023-01-05T13:12:15.706Z,212
2023-01-05T13:13:15.739Z,212
2023-01-05T13:14:15.775Z,208
2023-01-05T13:15:15.791Z,200
2023-01-05T13:16:16.050Z,192
2023-01-05T13:17:15.873Z,180
2023-01-05T13:18:15.753Z,176
2023-01-05T13:19:15.867Z,184
2023-01-05T13:20:15.862Z,208
2023-01-05T13:21:21.963Z,216
2023-01-05T13:22:15.766Z,216
2023-01-05T13:23:15.758Z,224
2023-01-05T13:24:15.984Z,180
2023-01-05T13:25:15.845Z,176
2023-01-05T13:26:15.868Z,200
2023-01-05T13:27:15.777Z,232
2023-01-05T13:28:15.938Z,236
2023-01-05T13:29:15.822Z,236
2023-01-05T13:30:15.782Z,256
2023-01-05T13:31:18.289Z,252
2023-01-05T13:32:18.726Z,264
2023-01-05T13:33:15.798Z,236
2023-01-05T13:34:15.800Z,196
2023-01-05T13:35:20.519Z,188
2023-01-05T13:36:15.735Z,228
2023-01-05T13:37:15.922Z,224
2023-01-05T13:38:15.793Z,216
2023-01-05T13:39:15.756Z,204
2023-01-05T13:40:18.646Z,220
2023-01-05T13:41:15.770Z,208
2023-01-05T13:42:15.898Z,188
2023-01-05T13:43:16.000Z,188
2023-01-05T13:44:15.819Z,156
2023-01-05T13:45:15.757Z,176
2023-01-05T13:46:18.943Z,200
2023-01-05T13:47:15.771Z,204
2023-01-05T13:48:22.260Z,204
2023-01-05T13:49:15.829Z,216
2023-01-05T13:50:15.787Z,208
2023-01-05T13:51:18.936Z,172
2023-01-05T13:52:15.764Z,176
2023-01-05T13:53:16.017Z,160
2023-01-05T13:54:18.868Z,164
2023-01-05T13:55:29.620Z,148
2023-01-05T13:56:17.206Z,144
2023-01-05T13:57:18.538Z,144
2023-01-05T13:58:15.897Z,144
2023-01-05T14:00:00.864Z,148
2023-01-05T14:00:19.487Z,148
2023-01-05T14:01:18.703Z,172
2023-01-05T14:02:21.221Z,200
2023-01-05T14:03:18.122Z,204
2023-01-05T14:04:18.172Z,192
2023-01-05T14:05:20.996Z,184
2023-01-05T14:06:18.284Z,168
2023-01-05T14:07:18.399Z,160
2023-01-05T14:08:21.222Z,148
2023-01-05T14:09:18.284Z,144
2023-01-05T14:10:18.147Z,144
2023-01-05T14:11:18.373Z,140
2023-01-05T14:12:18.345Z,144
2023-01-05T14:13:21.082Z,148
2023-01-05T14:14:18.210Z,148
2023-01-05T14:15:18.149Z,144
2023-01-05T14:16:18.386Z,136
2023-01-05T14:17:18.131Z,132
2023-01-05T14:18:18.271Z,136
2023-01-05T14:19:21.341Z,132
2023-01-05T14:20:18.175Z,132
2023-01-05T14:21:18.151Z,132
2023-01-05T14:22:18.195Z,124
2023-01-05T14:23:18.451Z,124
2023-01-05T14:24:21.712Z,120